sensor_id;sensor_type;location;lat;lon;timestamp;temperature;humidity
32640;DHT22;19049;52.524;11.468;2023-02-28T00:00:37;-0.90;99.90
32640;DHT22;19049;52.524;11.468;2023-02-28T00:03:03;-0.90;99.90
32640;DHT22;19049;52.524;11.468;2023-02-28T00:05:29;-1.20;99.90
32640;DHT22;19049;52.524;11.468;2023-02-28T00:07:55;-0.80;99.90
32640;DHT22;19049;52.524;11.468;2023-02-28T00:10:24;-0.80;99.90
32640;DHT22;19049;52.524;11.468;2023-02-28T00:12:51;-1.10;99.90
32640;DHT22;19049;52.524;11.468;2023-02-28T00:15:18;-0.60;99.90
32640;DHT22;19049;52.524;11.468;2023-02-28T00:17:44;-1.00;99.90
32640;DHT22;19049;52.524;11.468;2023-02-28T00:20:12;-1.10;99.90
32640;DHT22;19049;52.524;11.468;2023-02-28T00:22:39;-1.30;99.90
32640;DHT22;19049;52.524;11.468;2023-02-28T00:25:06;-2.00;99.90
32640;DHT22;19049;52.524;11.468;2023-02-28T00:27:33;-1.00;99.90
32640;DHT22;19049;52.524;11.468;2023-02-28T00:29:58;-1.40;99.90
32640;DHT22;19049;52.524;11.468;2023-02-28T00:32:24;-1.50;99.90
32640;DHT22;19049;52.524;11.468;2023-02-28T00:37:15;-1.70;99.90
32640;DHT22;19049;52.524;11.468;2023-02-28T00:39:41;-1.80;99.90
32640;DHT22;19049;52.524;11.468;2023-02-28T00:42:07;-1.00;99.90
32640;DHT22;19049;52.524;11.468;2023-02-28T00:47:00;-1.40;99.90
32640;DHT22;19049;52.524;11.468;2023-02-28T00:49:27;-1.40;99.90
32640;DHT22;19049;52.524;11.468;2023-02-28T00:51:54;-1.40;99.90
32640;DHT22;19049;52.524;11.468;2023-02-28T00:54:20;-1.50;99.90
32640;DHT22;19049;52.524;11.468;2023-02-28T00:56:46;-1.50;99.90
32640;DHT22;19049;52.524;11.468;2023-02-28T00:59:13;-1.60;99.90
32640;DHT22;19049;52.524;11.468;2023-02-28T01:01:39;-1.70;99.90
32640;DHT22;19049;52.524;11.468;2023-02-28T01:04:04;-1.90;99.90
32640;DHT22;19049;52.524;11.468;2023-02-28T01:06:30;-0.70;99.90
32640;DHT22;19049;52.524;11.468;2023-02-28T01:08:57;-2.40;99.90
32640;DHT22;19049;52.524;11.468;2023-02-28T01:11:23;-1.80;99.90
32640;DHT22;19049;52.524;11.468;2023-02-28T01:13:49;-2.00;99.90
32640;DHT22;19049;52.524;11.468;2023-02-28T01:16:15;-1.20;99.90
32640;DHT22;19049;52.524;11.468;2023-02-28T01:18:41;-2.00;99.90
32640;DHT22;19049;52.524;11.468;2023-02-28T01:21:09;-2.10;99.90
32640;DHT22;19049;52.524;11.468;2023-02-28T01:23:35;-1.80;99.90
32640;DHT22;19049;52.524;11.468;2023-02-28T01:26:21;-1.80;99.90
32640;DHT22;19049;52.524;11.468;2023-02-28T01:28:48;-2.00;99.90
32640;DHT22;19049;52.524;11.468;2023-02-28T01:31:14;-2.90;99.90
32640;DHT22;19049;52.524;11.468;2023-02-28T01:36:12;-2.70;99.90
32640;DHT22;19049;52.524;11.468;2023-02-28T01:38:38;-2.40;99.90
32640;DHT22;19049;52.524;11.468;2023-02-28T01:41:04;-2.40;99.90
32640;DHT22;19049;52.524;11.468;2023-02-28T01:48:37;-2.30;99.90
32640;DHT22;19049;52.524;11.468;2023-02-28T01:51:12;-2.70;99.90
32640;DHT22;19049;52.524;11.468;2023-02-28T01:53:43;-2.50;99.90
32640;DHT22;19049;52.524;11.468;2023-02-28T01:56:10;-2.10;99.90
32640;DHT22;19049;52.524;11.468;2023-02-28T02:01:03;-2.50;99.90
32640;DHT22;19049;52.524;11.468;2023-02-28T02:03:30;-2.80;99.90
32640;DHT22;19049;52.524;11.468;2023-02-28T02:08:26;-1.20;99.90
32640;DHT22;19049;52.524;11.468;2023-02-28T02:10:59;-2.00;99.90
32640;DHT22;19049;52.524;11.468;2023-02-28T02:13:45;-1.90;99.90
32640;DHT22;19049;52.524;11.468;2023-02-28T02:21:50;-3.30;99.90
32640;DHT22;19049;52.524;11.468;2023-02-28T02:37:58;-2.40;99.90
32640;DHT22;19049;52.524;11.468;2023-02-28T02:40:35;-2.80;99.60
32640;DHT22;19049;52.524;11.468;2023-02-28T02:43:30;-2.80;99.70
32640;DHT22;19049;52.524;11.468;2023-02-28T02:46:08;-2.90;99.90
32640;DHT22;19049;52.524;11.468;2023-02-28T02:48:38;-2.80;99.80
32640;DHT22;19049;52.524;11.468;2023-02-28T02:51:09;-2.30;99.90
32640;DHT22;19049;52.524;11.468;2023-02-28T02:56:27;-3.10;99.90
32640;DHT22;19049;52.524;11.468;2023-02-28T02:58:57;-2.80;99.90
32640;DHT22;19049;52.524;11.468;2023-02-28T03:01:26;-3.00;99.90
32640;DHT22;19049;52.524;11.468;2023-02-28T03:04:18;-2.90;99.80
32640;DHT22;19049;52.524;11.468;2023-02-28T03:06:44;-2.80;99.90
32640;DHT22;19049;52.524;11.468;2023-02-28T03:09:10;-2.80;99.90
32640;DHT22;19049;52.524;11.468;2023-02-28T03:11:37;-3.10;99.90
32640;DHT22;19049;52.524;11.468;2023-02-28T03:19:52;-3.30;99.90
32640;DHT22;19049;52.524;11.468;2023-02-28T03:35:37;-3.20;99.80
32640;DHT22;19049;52.524;11.468;2023-02-28T03:38:33;-3.20;99.60
32640;DHT22;19049;52.524;11.468;2023-02-28T03:41:22;-3.90;99.90
32640;DHT22;19049;52.524;11.468;2023-02-28T03:44:06;-3.50;99.90
32640;DHT22;19049;52.524;11.468;2023-02-28T03:46:38;-3.10;99.90
32640;DHT22;19049;52.524;11.468;2023-02-28T03:49:20;-3.30;99.90
32640;DHT22;19049;52.524;11.468;2023-02-28T03:51:48;-3.00;99.90
32640;DHT22;19049;52.524;11.468;2023-02-28T03:54:20;-3.30;99.90
32640;DHT22;19049;52.524;11.468;2023-02-28T03:57:04;-2.00;99.90
32640;DHT22;19049;52.524;11.468;2023-02-28T03:59:56;-3.30;99.90
32640;DHT22;19049;52.524;11.468;2023-02-28T04:02:24;-3.30;99.90
32640;DHT22;19049;52.524;11.468;2023-02-28T04:04:52;-3.30;99.90
32640;DHT22;19049;52.524;11.468;2023-02-28T04:07:18;-3.30;99.90
32640;DHT22;19049;52.524;11.468;2023-02-28T04:09:43;-2.90;99.90
32640;DHT22;19049;52.524;11.468;2023-02-28T04:19:27;-3.80;99.90
32640;DHT22;19049;52.524;11.468;2023-02-28T04:21:53;-4.00;99.30
32640;DHT22;19049;52.524;11.468;2023-02-28T04:24:21;-3.90;99.90
32640;DHT22;19049;52.524;11.468;2023-02-28T04:26:50;-3.60;99.40
32640;DHT22;19049;52.524;11.468;2023-02-28T04:29:28;-4.00;99.40
32640;DHT22;19049;52.524;11.468;2023-02-28T04:31:55;-3.70;99.30
32640;DHT22;19049;52.524;11.468;2023-02-28T04:34:23;-3.80;99.90
32640;DHT22;19049;52.524;11.468;2023-02-28T04:36:50;-3.70;99.90
32640;DHT22;19049;52.524;11.468;2023-02-28T04:39:16;-2.50;99.90
32640;DHT22;19049;52.524;11.468;2023-02-28T04:41:44;-3.80;99.60
32640;DHT22;19049;52.524;11.468;2023-02-28T04:46:36;-4.70;99.90
32640;DHT22;19049;52.524;11.468;2023-02-28T04:49:02;-3.80;99.60
32640;DHT22;19049;52.524;11.468;2023-02-28T04:51:28;-2.70;99.90
32640;DHT22;19049;52.524;11.468;2023-02-28T04:53:53;-3.90;99.60
32640;DHT22;19049;52.524;11.468;2023-02-28T04:56:20;-3.90;99.60
32640;DHT22;19049;52.524;11.468;2023-02-28T04:58:48;-4.30;99.90
32640;DHT22;19049;52.524;11.468;2023-02-28T05:03:44;-3.90;99.70
32640;DHT22;19049;52.524;11.468;2023-02-28T05:06:11;-3.90;99.40
32640;DHT22;19049;52.524;11.468;2023-02-28T05:08:37;-4.00;99.70
32640;DHT22;19049;52.524;11.468;2023-02-28T05:11:07;-3.90;99.70
32640;DHT22;19049;52.524;11.468;2023-02-28T05:13:33;-4.00;99.80
32640;DHT22;19049;52.524;11.468;2023-02-28T05:16:02;-3.90;99.90
32640;DHT22;19049;52.524;11.468;2023-02-28T05:18:27;-3.90;99.90
32640;DHT22;19049;52.524;11.468;2023-02-28T05:20:53;-3.90;99.90
32640;DHT22;19049;52.524;11.468;2023-02-28T05:23:20;-3.90;99.90
32640;DHT22;19049;52.524;11.468;2023-02-28T05:25:47;-3.90;99.90
32640;DHT22;19049;52.524;11.468;2023-02-28T05:28:12;-3.80;99.90
32640;DHT22;19049;52.524;11.468;2023-02-28T05:30:38;-3.90;99.90
32640;DHT22;19049;52.524;11.468;2023-02-28T05:33:04;-3.70;99.80
32640;DHT22;19049;52.524;11.468;2023-02-28T05:35:29;-3.80;99.80
32640;DHT22;19049;52.524;11.468;2023-02-28T05:37:55;-3.90;99.60
32640;DHT22;19049;52.524;11.468;2023-02-28T05:40:20;-3.90;99.60
32640;DHT22;19049;52.524;11.468;2023-02-28T05:42:46;-3.90;99.60
32640;DHT22;19049;52.524;11.468;2023-02-28T05:45:12;-4.00;99.50
32640;DHT22;19049;52.524;11.468;2023-02-28T05:47:37;-4.10;99.20
32640;DHT22;19049;52.524;11.468;2023-02-28T05:50:06;-2.60;99.80
32640;DHT22;19049;52.524;11.468;2023-02-28T05:54:58;-5.10;99.90
32640;DHT22;19049;52.524;11.468;2023-02-28T05:57:24;-4.10;99.90
32640;DHT22;19049;52.524;11.468;2023-02-28T06:02:17;-4.70;99.90
32640;DHT22;19049;52.524;11.468;2023-02-28T06:04:43;-4.30;99.10
32640;DHT22;19049;52.524;11.468;2023-02-28T06:07:10;-4.30;99.10
32640;DHT22;19049;52.524;11.468;2023-02-28T06:12:03;-3.80;99.90
32640;DHT22;19049;52.524;11.468;2023-02-28T06:14:32;-4.60;99.90
32640;DHT22;19049;52.524;11.468;2023-02-28T06:21:54;-4.30;99.20
32640;DHT22;19049;52.524;11.468;2023-02-28T06:24:22;-4.00;99.40
32640;DHT22;19049;52.524;11.468;2023-02-28T06:26:48;-4.10;99.90
32640;DHT22;19049;52.524;11.468;2023-02-28T06:31:52;-4.00;99.60
32640;DHT22;19049;52.524;11.468;2023-02-28T06:34:18;-3.70;99.90
32640;DHT22;19049;52.524;11.468;2023-02-28T06:39:10;-3.20;99.90
32640;DHT22;19049;52.524;11.468;2023-02-28T06:44:12;-1.70;99.90
32640;DHT22;19049;52.524;11.468;2023-02-28T06:46:39;-2.70;99.90
32640;DHT22;19049;52.524;11.468;2023-02-28T06:49:06;-2.40;99.90
32640;DHT22;19049;52.524;11.468;2023-02-28T06:54:00;-1.80;99.90
32640;DHT22;19049;52.524;11.468;2023-02-28T06:56:25;-1.20;99.90
32640;DHT22;19049;52.524;11.468;2023-02-28T07:01:18;-0.50;99.90
32640;DHT22;19049;52.524;11.468;2023-02-28T07:03:45;-0.50;99.90
32640;DHT22;19049;52.524;11.468;2023-02-28T07:11:05;1.00;99.90
32640;DHT22;19049;52.524;11.468;2023-02-28T07:16:03;0.80;99.90
32640;DHT22;19049;52.524;11.468;2023-02-28T07:20:56;2.10;99.90
32640;DHT22;19049;52.524;11.468;2023-02-28T07:25:49;2.20;99.70
32640;DHT22;19049;52.524;11.468;2023-02-28T07:30:41;2.80;99.50
32640;DHT22;19049;52.524;11.468;2023-02-28T07:33:07;3.20;99.90
32640;DHT22;19049;52.524;11.468;2023-02-28T07:35:33;4.10;99.90
32640;DHT22;19049;52.524;11.468;2023-02-28T07:40:25;4.50;99.90
32640;DHT22;19049;52.524;11.468;2023-02-28T07:50:12;5.40;97.70
32640;DHT22;19049;52.524;11.468;2023-02-28T07:55:05;6.10;99.90
32640;DHT22;19049;52.524;11.468;2023-02-28T08:07:16;7.70;97.00
32640;DHT22;19049;52.524;11.468;2023-02-28T08:14:37;8.60;99.90
32640;DHT22;19049;52.524;11.468;2023-02-28T08:19:30;9.20;99.90
32640;DHT22;19049;52.524;11.468;2023-02-28T08:21:56;9.20;99.90
32640;DHT22;19049;52.524;11.468;2023-02-28T08:26:49;9.60;99.90
32640;DHT22;19049;52.524;11.468;2023-02-28T08:31:41;9.60;95.70
32640;DHT22;19049;52.524;11.468;2023-02-28T08:34:12;9.80;95.90
32640;DHT22;19049;52.524;11.468;2023-02-28T08:39:05;10.10;95.80
32640;DHT22;19049;52.524;11.468;2023-02-28T08:48:52;11.30;99.90
32640;DHT22;19049;52.524;11.468;2023-02-28T08:58:44;11.20;99.90
32640;DHT22;19049;52.524;11.468;2023-02-28T09:01:22;11.60;96.10
32640;DHT22;19049;52.524;11.468;2023-02-28T09:03:49;11.70;95.80
32640;DHT22;19049;52.524;11.468;2023-02-28T09:06:16;11.80;99.90
32640;DHT22;19049;52.524;11.468;2023-02-28T09:16:03;12.40;98.30
32640;DHT22;19049;52.524;11.468;2023-02-28T09:20:58;12.10;99.90
32640;DHT22;19049;52.524;11.468;2023-02-28T09:23:24;11.90;95.50
32640;DHT22;19049;52.524;11.468;2023-02-28T09:25:52;12.20;99.90
32640;DHT22;19049;52.524;11.468;2023-02-28T09:30:45;11.90;95.00
32640;DHT22;19049;52.524;11.468;2023-02-28T09:33:12;11.60;96.50
32640;DHT22;19049;52.524;11.468;2023-02-28T09:35:38;12.00;99.90
32640;DHT22;19049;52.524;11.468;2023-02-28T09:38:04;11.90;99.90
32640;DHT22;19049;52.524;11.468;2023-02-28T09:40:30;12.10;99.90
32640;DHT22;19049;52.524;11.468;2023-02-28T09:42:57;11.90;95.10
32640;DHT22;19049;52.524;11.468;2023-02-28T09:45:36;12.00;95.70
32640;DHT22;19049;52.524;11.468;2023-02-28T09:48:16;12.00;95.70
32640;DHT22;19049;52.524;11.468;2023-02-28T09:50:52;12.00;99.50
32640;DHT22;19049;52.524;11.468;2023-02-28T09:53:34;12.30;99.90
32640;DHT22;19049;52.524;11.468;2023-02-28T09:58:51;11.60;99.90
32640;DHT22;19049;52.524;11.468;2023-02-28T10:01:24;12.10;99.90
32640;DHT22;19049;52.524;11.468;2023-02-28T10:03:58;12.30;99.90
32640;DHT22;19049;52.524;11.468;2023-02-28T10:06:42;12.30;99.90
32640;DHT22;19049;52.524;11.468;2023-02-28T10:09:30;12.00;98.30
32640;DHT22;19049;52.524;11.468;2023-02-28T10:12:03;12.30;96.50
32640;DHT22;19049;52.524;11.468;2023-02-28T10:14:33;12.40;92.70
32640;DHT22;19049;52.524;11.468;2023-02-28T10:17:26;12.40;92.90
32640;DHT22;19049;52.524;11.468;2023-02-28T10:20:00;12.50;93.30
32640;DHT22;19049;52.524;11.468;2023-02-28T10:24:55;12.10;99.40
32640;DHT22;19049;52.524;11.468;2023-02-28T10:27:29;11.90;92.40
32640;DHT22;19049;52.524;11.468;2023-02-28T10:29:58;11.60;92.20
32640;DHT22;19049;52.524;11.468;2023-02-28T10:32:35;11.10;92.20
32640;DHT22;19049;52.524;11.468;2023-02-28T10:35:25;11.10;92.00
32640;DHT22;19049;52.524;11.468;2023-02-28T10:37:54;11.00;99.20
32640;DHT22;19049;52.524;11.468;2023-02-28T10:43:00;11.70;98.80
32640;DHT22;19049;52.524;11.468;2023-02-28T10:45:28;11.10;96.50
32640;DHT22;19049;52.524;11.468;2023-02-28T10:50:43;11.20;94.60
32640;DHT22;19049;52.524;11.468;2023-02-28T10:56:22;11.20;99.80
32640;DHT22;19049;52.524;11.468;2023-02-28T11:06:30;10.30;93.30
32640;DHT22;19049;52.524;11.468;2023-02-28T11:08:58;11.40;91.40
32640;DHT22;19049;52.524;11.468;2023-02-28T11:11:26;11.40;91.70
32640;DHT22;19049;52.524;11.468;2023-02-28T11:13:56;11.00;95.90
32640;DHT22;19049;52.524;11.468;2023-02-28T11:16:32;11.30;93.40
32640;DHT22;19049;52.524;11.468;2023-02-28T11:21:34;11.90;96.70
32640;DHT22;19049;52.524;11.468;2023-02-28T11:24:31;11.00;92.10
32640;DHT22;19049;52.524;11.468;2023-02-28T11:29:30;11.10;91.90
32640;DHT22;19049;52.524;11.468;2023-02-28T11:34:35;11.00;91.20
32640;DHT22;19049;52.524;11.468;2023-02-28T11:39:33;10.30;99.90
32640;DHT22;19049;52.524;11.468;2023-02-28T11:47:39;11.30;93.80
32640;DHT22;19049;52.524;11.468;2023-02-28T11:53:02;11.80;99.90
32640;DHT22;19049;52.524;11.468;2023-02-28T11:55:38;12.10;99.80
32640;DHT22;19049;52.524;11.468;2023-02-28T12:06:36;11.80;98.80
32640;DHT22;19049;52.524;11.468;2023-02-28T12:18:30;12.00;90.90
32640;DHT22;19049;52.524;11.468;2023-02-28T12:24:32;12.00;91.10
32640;DHT22;19049;52.524;11.468;2023-02-28T12:27:02;11.80;98.00
32640;DHT22;19049;52.524;11.468;2023-02-28T12:29:32;12.10;91.30
32640;DHT22;19049;52.524;11.468;2023-02-28T12:32:22;12.20;90.50
32640;DHT22;19049;52.524;11.468;2023-02-28T12:34:54;14.00;92.00
32640;DHT22;19049;52.524;11.468;2023-02-28T12:37:49;12.30;97.80
32640;DHT22;19049;52.524;11.468;2023-02-28T12:40:20;12.90;91.80
32640;DHT22;19049;52.524;11.468;2023-02-28T12:42:50;12.70;85.20
32640;DHT22;19049;52.524;11.468;2023-02-28T12:45:20;12.80;87.90
32640;DHT22;19049;52.524;11.468;2023-02-28T12:47:52;12.80;89.00
32640;DHT22;19049;52.524;11.468;2023-02-28T12:50:21;13.00;89.00
32640;DHT22;19049;52.524;11.468;2023-02-28T12:52:58;13.00;89.90
32640;DHT22;19049;52.524;11.468;2023-02-28T13:06:45;13.20;95.50
32640;DHT22;19049;52.524;11.468;2023-02-28T13:09:15;13.30;82.30
32640;DHT22;19049;52.524;11.468;2023-02-28T13:14:27;14.40;93.80
32640;DHT22;19049;52.524;11.468;2023-02-28T13:17:01;12.80;94.80
32640;DHT22;19049;52.524;11.468;2023-02-28T13:19:31;13.20;95.40
32640;DHT22;19049;52.524;11.468;2023-02-28T13:21:57;13.80;83.10
32640;DHT22;19049;52.524;11.468;2023-02-28T13:24:43;14.20;93.40
32640;DHT22;19049;52.524;11.468;2023-02-28T13:29:37;14.00;95.60
32640;DHT22;19049;52.524;11.468;2023-02-28T13:34:37;14.20;83.20
32640;DHT22;19049;52.524;11.468;2023-02-28T13:39:56;14.20;75.50
32640;DHT22;19049;52.524;11.468;2023-02-28T13:50:27;14.30;80.30
32640;DHT22;19049;52.524;11.468;2023-02-28T14:01:12;14.80;94.20
32640;DHT22;19049;52.524;11.468;2023-02-28T14:06:32;14.50;93.50
32640;DHT22;19049;52.524;11.468;2023-02-28T14:11:41;14.90;80.70
32640;DHT22;19049;52.524;11.468;2023-02-28T14:14:09;14.80;81.20
32640;DHT22;19049;52.524;11.468;2023-02-28T14:16:55;14.80;92.70
32640;DHT22;19049;52.524;11.468;2023-02-28T14:19:27;14.80;92.70
32640;DHT22;19049;52.524;11.468;2023-02-28T14:22:10;14.80;76.80
32640;DHT22;19049;52.524;11.468;2023-02-28T14:27:24;15.20;91.40
32640;DHT22;19049;52.524;11.468;2023-02-28T14:30:14;15.00;80.70
32640;DHT22;19049;52.524;11.468;2023-02-28T14:33:26;14.50;91.70
32640;DHT22;19049;52.524;11.468;2023-02-28T14:36:08;15.10;75.60
32640;DHT22;19049;52.524;11.468;2023-02-28T14:38:46;15.40;86.20
32640;DHT22;19049;52.524;11.468;2023-02-28T14:41:38;15.10;79.30
32640;DHT22;19049;52.524;11.468;2023-02-28T14:44:20;15.00;78.20
32640;DHT22;19049;52.524;11.468;2023-02-28T14:46:53;15.10;79.40
32640;DHT22;19049;52.524;11.468;2023-02-28T14:49:26;14.90;88.90
32640;DHT22;19049;52.524;11.468;2023-02-28T14:59:35;14.80;90.50
32640;DHT22;19049;52.524;11.468;2023-02-28T15:02:22;14.30;75.30
32640;DHT22;19049;52.524;11.468;2023-02-28T15:08:14;14.20;78.00
32640;DHT22;19049;52.524;11.468;2023-02-28T15:10:44;14.30;77.50
32640;DHT22;19049;52.524;11.468;2023-02-28T15:13:14;14.30;77.50
32640;DHT22;19049;52.524;11.468;2023-02-28T15:18:26;14.30;76.70
32640;DHT22;19049;52.524;11.468;2023-02-28T15:20:52;14.30;90.00
32640;DHT22;19049;52.524;11.468;2023-02-28T15:25:48;14.00;88.60
32640;DHT22;19049;52.524;11.468;2023-02-28T15:28:19;14.10;76.10
32640;DHT22;19049;52.524;11.468;2023-02-28T15:31:00;14.10;91.60
32640;DHT22;19049;52.524;11.468;2023-02-28T15:33:30;13.90;77.80
32640;DHT22;19049;52.524;11.468;2023-02-28T15:36:15;14.10;92.30
32640;DHT22;19049;52.524;11.468;2023-02-28T15:38:43;13.90;79.60
32640;DHT22;19049;52.524;11.468;2023-02-28T15:41:29;14.10;77.50
32640;DHT22;19049;52.524;11.468;2023-02-28T15:46:45;14.00;77.60
32640;DHT22;19049;52.524;11.468;2023-02-28T15:49:20;14.40;91.40
32640;DHT22;19049;52.524;11.468;2023-02-28T15:51:49;13.80;77.90
32640;DHT22;19049;52.524;11.468;2023-02-28T15:54:21;13.70;78.00
32640;DHT22;19049;52.524;11.468;2023-02-28T15:56:51;13.70;77.60
32640;DHT22;19049;52.524;11.468;2023-02-28T15:59:23;13.50;78.80
32640;DHT22;19049;52.524;11.468;2023-02-28T16:02:14;13.30;79.20
32640;DHT22;19049;52.524;11.468;2023-02-28T16:12:27;11.00;80.70
32640;DHT22;19049;52.524;11.468;2023-02-28T16:14:59;10.60;95.00
32640;DHT22;19049;52.524;11.468;2023-02-28T16:17:30;10.10;82.60
32640;DHT22;19049;52.524;11.468;2023-02-28T16:27:36;9.10;84.60
32640;DHT22;19049;52.524;11.468;2023-02-28T16:30:03;8.80;85.50
32640;DHT22;19049;52.524;11.468;2023-02-28T16:32:35;8.50;87.20
32640;DHT22;19049;52.524;11.468;2023-02-28T16:35:02;8.20;87.00
32640;DHT22;19049;52.524;11.468;2023-02-28T16:37:27;7.90;88.20
32640;DHT22;19049;52.524;11.468;2023-02-28T16:42:26;7.10;97.70
32640;DHT22;19049;52.524;11.468;2023-02-28T16:44:53;6.60;93.70
32640;DHT22;19049;52.524;11.468;2023-02-28T16:47:19;6.80;90.10
32640;DHT22;19049;52.524;11.468;2023-02-28T16:49:45;6.20;99.40
32640;DHT22;19049;52.524;11.468;2023-02-28T16:52:12;5.90;99.50
32640;DHT22;19049;52.524;11.468;2023-02-28T16:54:39;6.20;97.80
32640;DHT22;19049;52.524;11.468;2023-02-28T16:57:05;5.50;90.20
32640;DHT22;19049;52.524;11.468;2023-02-28T16:59:32;4.90;98.50
32640;DHT22;19049;52.524;11.468;2023-02-28T17:01:58;4.90;90.40
32640;DHT22;19049;52.524;11.468;2023-02-28T17:04:25;4.50;90.60
32640;DHT22;19049;52.524;11.468;2023-02-28T17:06:51;4.70;90.70
32640;DHT22;19049;52.524;11.468;2023-02-28T17:09:20;5.50;91.20
32640;DHT22;19049;52.524;11.468;2023-02-28T17:11:46;4.50;91.20
32640;DHT22;19049;52.524;11.468;2023-02-28T17:14:12;4.00;91.30
32640;DHT22;19049;52.524;11.468;2023-02-28T17:16:39;5.00;92.10
32640;DHT22;19049;52.524;11.468;2023-02-28T17:19:10;4.50;92.20
32640;DHT22;19049;52.524;11.468;2023-02-28T17:21:37;3.80;94.60
32640;DHT22;19049;52.524;11.468;2023-02-28T17:24:03;3.10;92.20
32640;DHT22;19049;52.524;11.468;2023-02-28T17:26:28;2.90;92.20
32640;DHT22;19049;52.524;11.468;2023-02-28T17:28:56;4.50;99.90
32640;DHT22;19049;52.524;11.468;2023-02-28T17:31:26;3.40;98.70
32640;DHT22;19049;52.524;11.468;2023-02-28T17:33:52;2.30;92.80
32640;DHT22;19049;52.524;11.468;2023-02-28T17:36:25;2.10;93.00
32640;DHT22;19049;52.524;11.468;2023-02-28T17:38:52;1.80;93.00
32640;DHT22;19049;52.524;11.468;2023-02-28T17:41:18;1.90;93.30
32640;DHT22;19049;52.524;11.468;2023-02-28T17:43:44;1.70;93.40
32640;DHT22;19049;52.524;11.468;2023-02-28T17:46:16;1.60;93.50
32640;DHT22;19049;52.524;11.468;2023-02-28T17:48:44;1.40;93.60
32640;DHT22;19049;52.524;11.468;2023-02-28T17:51:13;1.30;93.70
32640;DHT22;19049;52.524;11.468;2023-02-28T17:53:41;1.20;93.80
32640;DHT22;19049;52.524;11.468;2023-02-28T17:56:15;1.00;93.90
32640;DHT22;19049;52.524;11.468;2023-02-28T18:01:07;0.90;99.90
32640;DHT22;19049;52.524;11.468;2023-02-28T18:03:33;0.80;99.90
32640;DHT22;19049;52.524;11.468;2023-02-28T18:05:59;1.90;94.80
32640;DHT22;19049;52.524;11.468;2023-02-28T18:08:25;0.40;94.50
32640;DHT22;19049;52.524;11.468;2023-02-28T18:10:51;0.70;97.90
32640;DHT22;19049;52.524;11.468;2023-02-28T18:18:09;-0.40;99.90
32640;DHT22;19049;52.524;11.468;2023-02-28T18:20:35;-0.40;96.80
32640;DHT22;19049;52.524;11.468;2023-02-28T18:25:27;-0.30;99.90
32640;DHT22;19049;52.524;11.468;2023-02-28T18:30:27;-0.60;99.90
32640;DHT22;19049;52.524;11.468;2023-02-28T18:35:22;-0.20;99.90
32640;DHT22;19049;52.524;11.468;2023-02-28T18:38:14;-0.80;97.20
32640;DHT22;19049;52.524;11.468;2023-02-28T18:40:41;-0.40;99.90
32640;DHT22;19049;52.524;11.468;2023-02-28T18:43:07;0.20;97.10
32640;DHT22;19049;52.524;11.468;2023-02-28T18:45:37;-1.50;99.90
32640;DHT22;19049;52.524;11.468;2023-02-28T18:48:03;-0.80;99.90
32640;DHT22;19049;52.524;11.468;2023-02-28T18:50:29;-0.90;95.70
32640;DHT22;19049;52.524;11.468;2023-02-28T18:52:55;0.20;99.90
32640;DHT22;19049;52.524;11.468;2023-02-28T18:55:22;0.10;99.90
32640;DHT22;19049;52.524;11.468;2023-02-28T19:00:15;-1.00;99.80
32640;DHT22;19049;52.524;11.468;2023-02-28T19:02:44;-1.30;99.90
32640;DHT22;19049;52.524;11.468;2023-02-28T19:07:36;-1.10;96.20
32640;DHT22;19049;52.524;11.468;2023-02-28T19:10:03;-1.10;99.90
32640;DHT22;19049;52.524;11.468;2023-02-28T19:12:35;-1.10;97.10
32640;DHT22;19049;52.524;11.468;2023-02-28T19:15:02;-1.10;97.30
32640;DHT22;19049;52.524;11.468;2023-02-28T19:17:28;-1.10;99.10
32640;DHT22;19049;52.524;11.468;2023-02-28T19:19:53;-1.20;97.30
32640;DHT22;19049;52.524;11.468;2023-02-28T19:22:19;-1.20;97.30
32640;DHT22;19049;52.524;11.468;2023-02-28T19:24:45;-1.00;99.90
32640;DHT22;19049;52.524;11.468;2023-02-28T19:27:11;-1.30;97.30
32640;DHT22;19049;52.524;11.468;2023-02-28T19:29:36;-1.80;99.90
32640;DHT22;19049;52.524;11.468;2023-02-28T19:39:21;-1.20;99.90
32640;DHT22;19049;52.524;11.468;2023-02-28T19:41:47;-1.60;97.40
32640;DHT22;19049;52.524;11.468;2023-02-28T19:44:12;-1.50;97.40
32640;DHT22;19049;52.524;11.468;2023-02-28T19:46:38;-1.50;97.40
32640;DHT22;19049;52.524;11.468;2023-02-28T19:49:03;-1.60;97.40
32640;DHT22;19049;52.524;11.468;2023-02-28T19:51:29;-1.60;97.40
32640;DHT22;19049;52.524;11.468;2023-02-28T19:53:55;-1.70;97.30
32640;DHT22;19049;52.524;11.468;2023-02-28T19:56:20;-1.40;99.90
32640;DHT22;19049;52.524;11.468;2023-02-28T20:01:17;-2.30;99.40
32640;DHT22;19049;52.524;11.468;2023-02-28T20:03:49;-1.90;96.90
32640;DHT22;19049;52.524;11.468;2023-02-28T20:06:16;-2.20;99.90
32640;DHT22;19049;52.524;11.468;2023-02-28T20:08:42;-1.60;99.90
32640;DHT22;19049;52.524;11.468;2023-02-28T20:11:10;-2.30;99.90
32640;DHT22;19049;52.524;11.468;2023-02-28T20:13:36;-1.70;99.90
32640;DHT22;19049;52.524;11.468;2023-02-28T20:16:05;-2.10;97.20
32640;DHT22;19049;52.524;11.468;2023-02-28T20:18:32;-2.10;97.30
32640;DHT22;19049;52.524;11.468;2023-02-28T20:20:58;-2.10;97.50
32640;DHT22;19049;52.524;11.468;2023-02-28T20:23:24;-2.10;97.60
32640;DHT22;19049;52.524;11.468;2023-02-28T20:25:50;-2.40;99.90
32640;DHT22;19049;52.524;11.468;2023-02-28T20:28:17;-1.50;97.60
32640;DHT22;19049;52.524;11.468;2023-02-28T20:30:43;-2.20;97.60
32640;DHT22;19049;52.524;11.468;2023-02-28T20:33:10;1.40;98.70
32640;DHT22;19049;52.524;11.468;2023-02-28T20:35:35;-2.20;97.70
32640;DHT22;19049;52.524;11.468;2023-02-28T20:38:01;-2.10;99.90
32640;DHT22;19049;52.524;11.468;2023-02-28T20:40:27;-2.20;97.80
32640;DHT22;19049;52.524;11.468;2023-02-28T20:42:53;-2.20;97.80
32640;DHT22;19049;52.524;11.468;2023-02-28T20:52:37;-2.60;99.90
32640;DHT22;19049;52.524;11.468;2023-02-28T20:59:55;-2.10;99.90
32640;DHT22;19049;52.524;11.468;2023-02-28T21:02:21;-2.30;99.90
32640;DHT22;19049;52.524;11.468;2023-02-28T21:04:47;-2.50;97.40
32640;DHT22;19049;52.524;11.468;2023-02-28T21:09:39;-2.50;99.90
32640;DHT22;19049;52.524;11.468;2023-02-28T21:16:57;-2.50;99.90
32640;DHT22;19049;52.524;11.468;2023-02-28T21:19:22;-2.30;99.90
32640;DHT22;19049;52.524;11.468;2023-02-28T21:21:48;-3.10;99.90
32640;DHT22;19049;52.524;11.468;2023-02-28T21:24:16;-2.70;99.90
32640;DHT22;19049;52.524;11.468;2023-02-28T21:26:43;-2.90;99.90
32640;DHT22;19049;52.524;11.468;2023-02-28T21:31:36;-2.70;99.90
32640;DHT22;19049;52.524;11.468;2023-02-28T21:34:05;-2.70;97.60
32640;DHT22;19049;52.524;11.468;2023-02-28T21:36:35;-2.80;99.90
32640;DHT22;19049;52.524;11.468;2023-02-28T21:39:04;-2.80;99.90
32640;DHT22;19049;52.524;11.468;2023-02-28T21:43:58;-2.90;99.90